Time;durP1;ratioP1;P1;durP2;ratioP2;P2;SDS_P1;SDS_P2;PMS_P1;PMS_P2;Temp;Humidity;BMP_temperature;BMP_pressure;BME280_temperature;BME280_humidity;BME280_pressure;Samples;Min_cycle;Max_cycle;Signal;HPM_P1;HPM_P2
2023/04/12 00:01:00;;;;;;;15.40;3.50;;;7.80;99.90;;;;;;4773724;30;20287;-78
2023/04/12 00:03:26;;;;;;;12.27;3.55;;;7.80;99.90;;;;;;4790704;29;20702;-78
2023/04/12 00:05:54;;;;;;;12.30;3.97;;;7.80;99.90;;;;;;4794630;29;20334;-79
2023/04/12 00:08:25;;;;;;;11.43;4.10;;;7.80;99.90;;;;;;4789630;29;20232;-77
2023/04/12 00:10:51;;;;;;;13.05;3.67;;;7.80;99.90;;;;;;4790536;29;20192;-78
2023/04/12 00:13:18;;;;;;;20.77;4.50;;;7.80;99.90;;;;;;4774035;29;20204;-80
2023/04/12 00:15:44;;;;;;;10.60;4.13;;;7.80;99.90;;;;;;4781884;29;20216;-78
2023/04/12 00:18:10;;;;;;;14.27;4.00;;;7.80;99.90;;;;;;4775802;29;20199;-84
2023/04/12 00:20:37;;;;;;;18.58;4.22;;;7.80;99.90;;;;;;4793511;29;20307;-78
2023/04/12 00:23:03;;;;;;;15.23;4.30;;;7.80;99.90;;;;;;4808222;29;20204;-77
2023/04/12 00:25:28;;;;;;;11.60;4.20;;;7.80;99.90;;;;;;4806638;29;20204;-79
2023/04/12 00:27:55;;;;;;;14.30;4.47;;;7.90;99.90;;;;;;4791906;29;20192;-80
2023/04/12 00:30:22;;;;;;;10.55;4.57;;;7.90;99.90;;;;;;4787328;29;20550;-78
2023/04/12 00:32:48;;;;;;;12.98;4.60;;;7.90;99.90;;;;;;4805117;29;20291;-78
2023/04/12 00:35:13;;;;;;;11.73;4.10;;;7.90;99.90;;;;;;4791299;29;20306;-78
2023/04/12 00:37:39;;;;;;;17.02;4.53;;;7.90;99.90;;;;;;4808486;29;20194;-79
2023/04/12 00:40:08;;;;;;;19.13;4.43;;;7.90;99.90;;;;;;4790437;29;20283;-79
2023/04/12 00:42:35;;;;;;;18.45;4.53;;;7.90;99.90;;;;;;4806896;29;20191;-79
2023/04/12 00:45:01;;;;;;;15.63;4.78;;;7.90;99.90;;;;;;4790834;29;20196;-78
2023/04/12 00:47:28;;;;;;;14.13;4.38;;;8.00;99.90;;;;;;4776000;29;20192;-79
2023/04/12 00:49:54;;;;;;;14.70;4.18;;;8.00;99.90;;;;;;4788584;29;20249;-79
2023/04/12 00:52:22;;;;;;;13.18;4.45;;;8.00;99.90;;;;;;4772944;30;20283;-79
2023/04/12 00:54:48;;;;;;;12.70;3.90;;;8.00;99.90;;;;;;4782823;29;20228;-78
2023/04/12 00:57:14;;;;;;;10.52;4.45;;;8.00;99.90;;;;;;4806110;29;20240;-79
2023/04/12 00:59:40;;;;;;;14.52;4.28;;;8.00;99.90;;;;;;4805883;29;20666;-78
2023/04/12 01:02:06;;;;;;;13.32;4.20;;;8.10;99.90;;;;;;4790595;29;20188;-78
2023/04/12 01:04:33;;;;;;;12.05;4.57;;;8.00;99.90;;;;;;4762526;30;20552;-79
2023/04/12 01:07:15;;;;;;;11.85;4.40;;;8.00;99.90;;;;;;4772628;29;20205;-79
2023/04/12 01:10:08;;;;;;;13.13;5.18;;;8.10;99.90;;;;;;4790306;29;20313;-78
2023/04/12 01:12:46;;;;;;;19.00;5.25;;;8.10;99.90;;;;;;4805459;29;20187;-78
2023/04/12 01:15:15;;;;;;;13.90;5.03;;;8.10;99.90;;;;;;4789510;29;20269;-80
2023/04/12 01:17:48;;;;;;;17.30;6.18;;;8.10;99.90;;;;;;4809587;29;20713;-79
2023/04/12 01:20:18;;;;;;;11.30;5.65;;;8.10;99.90;;;;;;4790073;29;20659;-78
2023/04/12 01:23:25;;;;;;;16.40;5.60;;;8.10;99.90;;;;;;4779326;29;20193;-78
2023/04/12 01:26:01;;;;;;;19.58;5.55;;;8.10;99.90;;;;;;4799863;29;20234;-78
2023/04/12 01:28:33;;;;;;;15.35;5.70;;;8.10;99.90;;;;;;4789780;29;20553;-78
2023/04/12 01:31:03;;;;;;;15.18;5.18;;;8.10;99.90;;;;;;4786959;30;20673;-79
2023/04/12 01:33:32;;;;;;;13.23;4.40;;;8.10;99.90;;;;;;4788229;29;20185;-79
2023/04/12 01:36:00;;;;;;;15.02;4.10;;;8.10;99.90;;;;;;4758202;30;20653;-78
2023/04/12 01:38:27;;;;;;;10.20;3.30;;;8.20;99.90;;;;;;4786193;29;20192;-79
2023/04/12 01:40:54;;;;;;;19.95;4.35;;;8.20;99.90;;;;;;4790074;29;20192;-78
2023/04/12 01:43:20;;;;;;;9.45;3.92;;;8.30;99.90;;;;;;4811533;29;20449;-79
2023/04/12 01:45:46;;;;;;;13.90;3.63;;;8.30;99.90;;;;;;4804630;29;20278;-80
2023/04/12 01:48:11;;;;;;;16.27;4.80;;;8.30;99.90;;;;;;4804376;29;20216;-84
2023/04/12 01:50:55;;;;;;;12.80;4.65;;;8.30;99.90;;;;;;4800561;29;20196;-79
2023/04/12 01:53:31;;;;;;;10.77;4.05;;;8.30;99.90;;;;;;4786743;29;20196;-78
2023/04/12 01:56:07;;;;;;;15.63;4.00;;;8.30;99.90;;;;;;4787125;29;20209;-79
2023/04/12 01:58:33;;;;;;;10.52;3.53;;;8.40;99.90;;;;;;4780486;29;20184;-78
2023/04/12 02:01:01;;;;;;;13.60;2.97;;;8.40;99.90;;;;;;4781804;29;20294;-78
2023/04/12 02:03:30;;;;;;;10.07;2.88;;;8.50;99.90;;;;;;4775182;29;20218;-78
2023/04/12 02:05:58;;;;;;;14.20;3.25;;;8.50;99.90;;;;;;4792470;29;20604;-78
2023/04/12 02:08:25;;;;;;;11.85;3.25;;;8.60;99.90;;;;;;4788526;29;20598;-80
2023/04/12 02:10:51;;;;;;;11.88;2.90;;;8.70;99.90;;;;;;4789804;29;20287;-79
2023/04/12 02:13:17;;;;;;;11.00;3.33;;;8.70;99.90;;;;;;4804484;29;20680;-78
2023/04/12 02:15:44;;;;;;;8.50;2.58;;;8.80;99.90;;;;;;4802608;29;20228;-79
2023/04/12 02:18:12;;;;;;;14.68;2.95;;;8.80;99.90;;;;;;4806022;29;20195;-79
2023/04/12 02:20:39;;;;;;;8.98;2.80;;;8.90;99.90;;;;;;4789412;29;20206;-79
2023/04/12 02:23:06;;;;;;;10.55;2.70;;;8.80;99.90;;;;;;4777689;29;20249;-78
2023/04/12 02:25:32;;;;;;;9.60;2.92;;;9.00;99.90;;;;;;4777937;29;20196;-80
2023/04/12 02:27:59;;;;;;;7.65;2.50;;;8.90;99.90;;;;;;4789312;29;20697;-79
2023/04/12 02:30:25;;;;;;;10.75;3.05;;;8.90;99.90;;;;;;4802841;29;20203;-85
2023/04/12 02:32:54;;;;;;;11.18;3.05;;;8.90;99.90;;;;;;4789268;29;20204;-80
2023/04/12 02:35:31;;;;;;;10.60;2.90;;;8.90;99.90;;;;;;4803375;29;20246;-79
2023/04/12 02:38:07;;;;;;;15.25;3.20;;;9.00;99.90;;;;;;4776852;29;20192;-79
2023/04/12 02:40:37;;;;;;;8.40;2.60;;;9.00;99.90;;;;;;4765839;30;20196;-80
2023/04/12 02:43:04;;;;;;;8.75;2.40;;;9.00;99.90;;;;;;4789456;29;20191;-79
2023/04/12 02:45:31;;;;;;;13.52;3.50;;;9.00;99.90;;;;;;4786037;30;20296;-79
2023/04/12 02:47:56;;;;;;;11.98;3.28;;;9.00;99.90;;;;;;4775451;29;20279;-79
2023/04/12 02:50:28;;;;;;;7.55;3.10;;;9.00;99.90;;;;;;4771698;29;20192;-79
2023/04/12 02:53:01;;;;;;;8.43;2.80;;;9.00;99.90;;;;;;4793726;29;20203;-80
2023/04/12 02:55:29;;;;;;;8.93;2.63;;;9.00;99.90;;;;;;4789788;29;20364;-79
2023/04/12 02:57:56;;;;;;;8.52;2.75;;;9.00;99.90;;;;;;4802846;29;20732;-79
2023/04/12 03:00:23;;;;;;;6.55;2.80;;;9.00;99.90;;;;;;4791709;29;20625;-79
2023/04/12 03:02:52;;;;;;;8.10;2.83;;;9.00;99.90;;;;;;4792694;29;20634;-79
2023/04/12 03:05:24;;;;;;;10.00;2.80;;;9.00;99.90;;;;;;4790359;29;20745;-79
2023/04/12 03:07:51;;;;;;;9.30;2.90;;;9.00;99.90;;;;;;4774335;30;20247;-79
2023/04/12 03:10:21;;;;;;;8.55;2.55;;;9.00;99.90;;;;;;4791205;29;20199;-78
2023/04/12 03:12:54;;;;;;;6.85;2.13;;;9.00;99.90;;;;;;4794076;29;20200;-79
2023/04/12 03:15:22;;;;;;;9.75;2.45;;;9.00;99.90;;;;;;4808311;29;20231;-80
2023/04/12 03:17:50;;;;;;;8.98;2.40;;;9.00;99.90;;;;;;4791143;29;20192;-81
2023/04/12 03:20:19;;;;;;;9.70;2.78;;;9.00;99.90;;;;;;4789402;29;20201;-79
2023/04/12 03:22:57;;;;;;;6.70;2.40;;;9.00;99.90;;;;;;4791964;29;20192;-80
2023/04/12 03:25:23;;;;;;;9.43;2.63;;;9.00;99.90;;;;;;4791002;29;20718;-78
2023/04/12 03:27:54;;;;;;;11.20;2.78;;;9.00;99.90;;;;;;4775687;29;20245;-80
2023/04/12 03:30:26;;;;;;;7.78;2.85;;;9.00;99.90;;;;;;4776715;29;20257;-79
2023/04/12 03:32:55;;;;;;;8.30;2.65;;;9.00;99.90;;;;;;4774580;29;20192;-79
2023/04/12 03:35:21;;;;;;;8.30;2.35;;;9.10;99.90;;;;;;4775410;29;20224;-79
2023/04/12 03:37:49;;;;;;;6.22;2.22;;;9.00;99.90;;;;;;4791963;29;20196;-79
2023/04/12 03:40:15;;;;;;;7.30;2.55;;;9.10;99.90;;;;;;4777476;29;20196;-79
2023/04/12 03:42:47;;;;;;;9.13;2.15;;;9.00;99.90;;;;;;4766918;29;20223;-79
2023/04/12 03:45:14;;;;;;;7.50;2.30;;;9.10;99.90;;;;;;4791587;29;20752;-80
2023/04/12 03:47:44;;;;;;;8.95;2.17;;;9.10;99.90;;;;;;4788675;29;20661;-79
2023/04/12 03:50:11;;;;;;;9.13;2.08;;;9.10;99.90;;;;;;4783060;29;20196;-79
2023/04/12 03:52:38;;;;;;;6.63;2.33;;;9.10;99.90;;;;;;4793515;29;20208;-79
2023/04/12 03:55:06;;;;;;;5.82;2.10;;;9.10;99.90;;;;;;4800409;29;20318;-79
2023/04/12 03:57:32;;;;;;;4.18;1.63;;;9.10;99.90;;;;;;4776414;29;20224;-79
2023/04/12 03:59:58;;;;;;;8.48;2.22;;;9.10;99.90;;;;;;4790913;29;20206;-79
2023/04/12 04:02:33;;;;;;;8.07;2.17;;;9.10;99.90;;;;;;4806865;29;20332;-79
2023/04/12 04:05:01;;;;;;;11.52;2.58;;;9.10;99.90;;;;;;4793160;29;20291;-80
2023/04/12 04:07:28;;;;;;;5.65;1.80;;;9.10;99.90;;;;;;4773431;30;20245;-80
2023/04/12 04:09:55;;;;;;;9.15;2.20;;;9.10;99.90;;;;;;4781222;29;20189;-79
2023/04/12 04:12:22;;;;;;;6.20;2.13;;;9.10;99.90;;;;;;4804591;29;20724;-79
2023/04/12 04:14:52;;;;;;;8.38;2.05;;;9.00;99.90;;;;;;4787665;29;20569;-79
2023/04/12 04:17:27;;;;;;;8.95;2.42;;;9.10;99.90;;;;;;4791377;29;20215;-79
2023/04/12 04:19:54;;;;;;;6.15;1.98;;;9.10;99.90;;;;;;4776646;29;20195;-80
2023/04/12 04:22:20;;;;;;;8.27;2.40;;;9.00;99.90;;;;;;4791326;29;20192;-79
2023/04/12 04:24:50;;;;;;;8.68;2.42;;;9.00;99.90;;;;;;4790859;29;20200;-78
2023/04/12 04:27:19;;;;;;;6.97;2.00;;;9.00;99.90;;;;;;4792214;29;20692;-80
2023/04/12 04:29:46;;;;;;;6.25;2.35;;;9.00;99.90;;;;;;4780457;30;20200;-81
2023/04/12 04:32:14;;;;;;;9.75;2.53;;;9.00;99.90;;;;;;4801016;29;20204;-80
2023/04/12 04:34:58;;;;;;;7.78;2.40;;;9.00;99.90;;;;;;4773371;30;20225;-80
2023/04/12 04:37:30;;;;;;;10.73;2.58;;;9.00;99.90;;;;;;4788315;30;20690;-80
2023/04/12 04:39:57;;;;;;;7.85;2.65;;;9.00;99.90;;;;;;4774439;30;20205;-80
2023/04/12 04:42:24;;;;;;;8.48;2.40;;;9.00;99.90;;;;;;4776388;29;20192;-80
2023/04/12 04:45:11;;;;;;;8.68;2.67;;;9.00;99.90;;;;;;4771207;30;20203;-81
2023/04/12 04:47:39;;;;;;;8.02;2.40;;;8.90;99.90;;;;;;4781118;29;20195;-80
2023/04/12 04:50:06;;;;;;;7.20;2.72;;;8.90;99.90;;;;;;4777478;30;20193;-80
2023/04/12 04:52:32;;;;;;;9.85;3.00;;;8.90;99.90;;;;;;4775615;29;20199;-80
2023/04/12 04:55:04;;;;;;;9.38;3.13;;;8.90;99.90;;;;;;4771452;30;20289;-80
2023/04/12 04:57:35;;;;;;;12.05;3.13;;;8.90;99.90;;;;;;4772946;30;20288;-80
2023/04/12 05:00:09;;;;;;;9.80;2.83;;;8.90;99.90;;;;;;4787680;29;20215;-85
2023/04/12 05:02:36;;;;;;;10.93;2.88;;;8.90;99.90;;;;;;4790228;29;20248;-80
2023/04/12 05:05:03;;;;;;;10.57;3.42;;;8.90;99.90;;;;;;4795338;29;20195;-80
2023/04/12 05:07:31;;;;;;;6.35;2.58;;;8.80;99.90;;;;;;4765259;30;20607;-81
2023/04/12 05:09:57;;;;;;;11.30;3.08;;;8.80;99.90;;;;;;4778721;30;20197;-83
2023/04/12 05:12:23;;;;;;;10.10;3.08;;;8.80;99.90;;;;;;4798404;29;20775;-80
2023/04/12 05:14:53;;;;;;;8.38;3.50;;;8.80;99.90;;;;;;4790084;29;20241;-80
2023/04/12 05:17:19;;;;;;;10.95;3.30;;;8.80;99.90;;;;;;4790429;29;20552;-81
2023/04/12 05:19:44;;;;;;;10.07;3.10;;;8.70;99.90;;;;;;4789948;29;20200;-79
2023/04/12 05:22:11;;;;;;;8.35;3.17;;;8.70;99.90;;;;;;4790113;29;20268;-80
2023/04/12 05:24:37;;;;;;;8.95;3.45;;;8.70;99.90;;;;;;4805267;29;20706;-79
2023/04/12 05:27:03;;;;;;;9.98;3.47;;;8.70;99.90;;;;;;4805222;29;20188;-79
2023/04/12 05:29:29;;;;;;;10.80;3.40;;;8.70;99.90;;;;;;4790233;29;20192;-80
2023/04/12 05:31:58;;;;;;;11.13;3.50;;;8.70;99.90;;;;;;4789233;29;20215;-80
2023/04/12 05:34:25;;;;;;;11.85;3.63;;;8.60;99.90;;;;;;4790404;29;20696;-79
2023/04/12 05:36:53;;;;;;;13.15;3.97;;;8.60;99.90;;;;;;4757965;30;20658;-79
2023/04/12 05:39:20;;;;;;;10.35;4.22;;;8.60;99.90;;;;;;4772617;30;20203;-79
2023/04/12 05:41:46;;;;;;;10.38;3.53;;;8.60;99.90;;;;;;4787576;29;20184;-79
2023/04/12 05:44:12;;;;;;;12.30;3.95;;;8.60;99.90;;;;;;4791754;29;20249;-79
2023/04/12 05:46:38;;;;;;;7.07;3.60;;;8.60;99.90;;;;;;4790719;29;20629;-80
2023/04/12 05:49:04;;;;;;;12.75;3.65;;;8.60;99.90;;;;;;4790030;29;20571;-79
2023/04/12 05:51:30;;;;;;;14.57;4.03;;;8.60;99.90;;;;;;4790070;29;20198;-79
2023/04/12 05:53:56;;;;;;;9.35;3.63;;;8.60;99.90;;;;;;4790280;29;20288;-78
2023/04/12 05:56:25;;;;;;;9.85;3.40;;;8.50;99.90;;;;;;4785894;29;20192;-79
2023/04/12 05:58:51;;;;;;;8.93;3.42;;;8.50;99.90;;;;;;4797250;29;20219;-79
2023/04/12 06:01:18;;;;;;;10.65;3.72;;;8.50;99.90;;;;;;4806444;29;20211;-79
2023/04/12 06:03:45;;;;;;;11.23;3.65;;;8.50;99.90;;;;;;4789961;29;20188;-79
2023/04/12 06:06:12;;;;;;;9.93;4.03;;;8.50;99.90;;;;;;4789474;29;20195;-80
2023/04/12 06:08:39;;;;;;;7.57;3.63;;;8.50;99.90;;;;;;4806477;29;20231;-81
2023/04/12 06:11:07;;;;;;;7.93;3.15;;;8.50;99.90;;;;;;4792698;29;20259;-80
2023/04/12 06:13:33;;;;;;;9.30;3.22;;;8.50;99.90;;;;;;4790086;29;20220;-80
2023/04/12 06:15:59;;;;;;;9.02;3.20;;;8.60;99.90;;;;;;4775239;29;20227;-80
2023/04/12 06:18:25;;;;;;;8.55;3.10;;;8.50;99.90;;;;;;4778383;30;20199;-80
2023/04/12 06:20:51;;;;;;;7.70;3.60;;;8.50;99.90;;;;;;4772205;30;20261;-80
2023/04/12 06:23:18;;;;;;;10.18;3.30;;;8.60;99.90;;;;;;4772709;30;20597;-80
2023/04/12 06:25:44;;;;;;;6.55;2.78;;;8.50;99.90;;;;;;4772046;30;20220;-79
2023/04/12 06:28:10;;;;;;;8.23;2.95;;;8.50;99.90;;;;;;4788053;30;20618;-79
2023/04/12 06:30:42;;;;;;;7.40;3.03;;;8.50;99.90;;;;;;4782577;29;20275;-80
2023/04/12 06:33:07;;;;;;;9.52;3.10;;;8.50;99.90;;;;;;4775915;29;20279;-79
2023/04/12 06:35:33;;;;;;;7.78;3.05;;;8.50;99.90;;;;;;4794929;29;20704;-80
2023/04/12 06:38:00;;;;;;;6.47;3.35;;;8.50;99.90;;;;;;4811338;29;20560;-79
2023/04/12 06:40:26;;;;;;;8.57;3.25;;;8.50;99.90;;;;;;4808291;29;20372;-79
2023/04/12 06:42:52;;;;;;;7.53;3.15;;;8.50;99.90;;;;;;4798738;29;20646;-79
2023/04/12 06:45:21;;;;;;;8.85;3.40;;;8.50;99.90;;;;;;4776567;30;20578;-79
2023/04/12 06:47:47;;;;;;;9.80;3.30;;;8.50;99.90;;;;;;4776316;29;20253;-79
2023/04/12 06:50:13;;;;;;;10.55;3.25;;;8.50;99.90;;;;;;4778255;29;20195;-80
2023/04/12 06:52:39;;;;;;;9.43;3.55;;;8.40;99.90;;;;;;4809057;29;20196;-80
2023/04/12 06:55:06;;;;;;;9.40;3.60;;;8.50;99.90;;;;;;4789639;29;20273;-80
2023/04/12 06:57:32;;;;;;;9.98;3.30;;;8.50;99.90;;;;;;4806856;29;20196;-79
2023/04/12 06:59:57;;;;;;;7.63;3.63;;;8.50;99.90;;;;;;4808956;29;20638;-79
2023/04/12 07:02:23;;;;;;;7.07;3.25;;;8.50;99.90;;;;;;4800685;29;20228;-79
2023/04/12 07:04:53;;;;;;;5.95;3.47;;;8.50;99.90;;;;;;4803699;29;20204;-80
2023/04/12 07:07:19;;;;;;;11.95;3.50;;;8.50;99.90;;;;;;4810083;29;20240;-79
2023/04/12 07:09:46;;;;;;;10.98;3.50;;;8.50;99.90;;;;;;4797240;29;20195;-80
2023/04/12 07:12:12;;;;;;;9.52;4.03;;;8.50;99.90;;;;;;4797553;29;20228;-79
2023/04/12 07:14:39;;;;;;;11.45;3.75;;;8.50;99.90;;;;;;4795506;29;20215;-78
2023/04/12 07:17:05;;;;;;;8.20;3.65;;;8.50;99.90;;;;;;4827901;29;20190;-80
2023/04/12 07:19:31;;;;;;;9.38;3.60;;;8.50;99.90;;;;;;4819230;29;20203;-79
2023/04/12 07:21:57;;;;;;;8.27;3.17;;;8.50;99.90;;;;;;4804148;29;20192;-78
2023/04/12 07:24:23;;;;;;;7.28;3.72;;;8.50;99.90;;;;;;4792936;29;20268;-79
2023/04/12 07:26:51;;;;;;;9.70;4.05;;;8.50;99.90;;;;;;4808818;29;20184;-79
2023/04/12 07:29:17;;;;;;;7.43;3.63;;;8.50;99.90;;;;;;4818767;29;20200;-78
2023/04/12 07:31:43;;;;;;;8.38;3.80;;;8.50;99.90;;;;;;4792597;29;20667;-79
2023/04/12 07:34:09;;;;;;;9.48;3.53;;;8.50;99.90;;;;;;4794979;29;20267;-81
2023/04/12 07:36:34;;;;;;;7.32;3.47;;;8.50;99.90;;;;;;4789664;30;20650;-79
2023/04/12 07:39:00;;;;;;;7.45;3.67;;;8.50;99.90;;;;;;4791088;30;20192;-78
2023/04/12 07:41:27;;;;;;;7.95;3.75;;;8.50;99.90;;;;;;4790954;30;20279;-78
2023/04/12 07:43:53;;;;;;;12.48;3.97;;;8.50;99.90;;;;;;4781438;29;20246;-78
2023/04/12 07:46:19;;;;;;;9.55;3.80;;;8.50;99.90;;;;;;4794433;29;20659;-79
2023/04/12 07:48:45;;;;;;;6.97;3.33;;;8.50;99.90;;;;;;4796068;29;20252;-78
2023/04/12 07:51:11;;;;;;;6.88;3.60;;;8.50;99.90;;;;;;4795948;29;20250;-79
2023/04/12 07:53:37;;;;;;;6.28;3.63;;;8.60;99.90;;;;;;4811573;29;20184;-78
2023/04/12 07:56:05;;;;;;;7.65;4.68;;;8.60;99.90;;;;;;4814364;29;20251;-81
2023/04/12 07:58:32;;;;;;;4.72;3.60;;;8.60;99.90;;;;;;4807323;29;20765;-78
2023/04/12 08:00:58;;;;;;;5.82;3.38;;;8.60;99.90;;;;;;4815483;29;20188;-79
2023/04/12 08:03:24;;;;;;;12.43;4.93;;;8.60;99.90;;;;;;4808812;29;20194;-80
2023/04/12 08:05:54;;;;;;;9.55;3.78;;;8.60;99.90;;;;;;4814329;29;20640;-77
2023/04/12 08:08:21;;;;;;;8.80;3.95;;;8.60;99.90;;;;;;4790671;29;20764;-79
2023/04/12 08:10:48;;;;;;;6.65;4.30;;;8.60;99.90;;;;;;4799230;29;20204;-81
2023/04/12 08:13:14;;;;;;;5.50;3.38;;;8.60;99.90;;;;;;4807967;29;20191;-78
2023/04/12 08:20:16;;;;;;;5.30;3.45;;;8.70;99.90;;;;;;4790333;30;20633;-78
2023/04/12 08:22:44;;;;;;;7.57;3.92;;;8.70;99.90;;;;;;4787278;29;20184;-79
2023/04/12 08:25:09;;;;;;;9.27;4.70;;;8.80;99.90;;;;;;4791607;29;20199;-79
2023/04/12 08:27:35;;;;;;;8.68;4.28;;;8.80;99.90;;;;;;4807838;29;20188;-80
2023/04/12 08:30:02;;;;;;;5.30;3.83;;;8.80;99.90;;;;;;4801736;29;20225;-79
2023/04/12 08:32:28;;;;;;;7.80;3.90;;;8.90;99.90;;;;;;4806372;29;20180;-79
2023/04/12 08:34:54;;;;;;;6.07;3.58;;;8.90;99.90;;;;;;4784258;29;20619;-80
2023/04/12 08:37:20;;;;;;;8.25;4.43;;;8.90;99.90;;;;;;4773333;30;20189;-79
2023/04/12 08:39:46;;;;;;;6.65;3.63;;;9.00;99.90;;;;;;4774583;29;20196;-80
2023/04/12 08:42:15;;;;;;;7.40;4.00;;;9.00;99.90;;;;;;4803814;29;20195;-79
2023/04/12 08:44:41;;;;;;;5.60;3.53;;;9.00;99.90;;;;;;4780776;29;20208;-79
2023/04/12 08:47:10;;;;;;;7.40;3.92;;;9.00;99.90;;;;;;4792120;29;20188;-81
2023/04/12 08:49:37;;;;;;;6.35;4.00;;;9.00;99.90;;;;;;4797446;29;20193;-83
2023/04/12 08:52:08;;;;;;;7.18;3.85;;;9.00;99.90;;;;;;4758679;30;20287;-81
2023/04/12 08:54:34;;;;;;;4.45;3.58;;;9.00;99.90;;;;;;4798184;29;20211;-80
2023/04/12 08:57:03;;;;;;;7.18;4.03;;;9.00;99.90;;;;;;4790188;29;20260;-84
2023/04/12 08:59:31;;;;;;;7.22;3.95;;;9.00;99.90;;;;;;4787301;29;20268;-82
2023/04/12 09:01:58;;;;;;;5.80;3.80;;;9.00;99.90;;;;;;4808759;29;20240;-80
2023/04/12 09:04:28;;;;;;;10.48;4.57;;;9.10;99.90;;;;;;4814771;29;20271;-79
2023/04/12 09:06:54;;;;;;;5.68;4.60;;;9.10;99.90;;;;;;4791662;29;20203;-85
2023/04/12 09:09:46;;;;;;;5.63;4.50;;;9.10;99.90;;;;;;4806984;29;20244;-80
2023/04/12 09:12:13;;;;;;;6.88;4.50;;;9.20;99.90;;;;;;4790018;29;20203;-81
2023/04/12 09:14:42;;;;;;;5.95;4.55;;;9.20;99.90;;;;;;4805414;29;20298;-80
2023/04/12 09:17:26;;;;;;;5.40;4.22;;;9.20;99.90;;;;;;4777806;29;20218;-80
2023/04/12 09:19:54;;;;;;;6.10;4.85;;;9.20;99.90;;;;;;4790757;29;20556;-80
2023/04/12 09:22:33;;;;;;;8.63;5.28;;;9.30;99.90;;;;;;4806947;29;20288;-79
2023/04/12 09:24:58;;;;;;;10.05;4.78;;;9.30;99.90;;;;;;4793143;29;20200;-79
2023/04/12 09:27:27;;;;;;;7.38;5.30;;;9.40;99.90;;;;;;4806119;29;20202;-83
2023/04/12 09:30:06;;;;;;;8.73;5.35;;;9.40;99.90;;;;;;4781914;29;20226;-80
2023/04/12 09:32:32;;;;;;;7.53;5.70;;;9.50;99.90;;;;;;4794194;29;20226;-78
2023/04/12 09:35:01;;;;;;;6.40;5.70;;;9.50;99.90;;;;;;4791967;29;20252;-78
2023/04/12 09:37:27;;;;;;;6.53;5.40;;;9.50;99.90;;;;;;4819984;29;20191;-78
2023/04/12 09:40:09;;;;;;;8.07;5.65;;;9.50;99.90;;;;;;4792239;29;20203;-78
2023/04/12 09:42:53;;;;;;;8.55;5.47;;;9.60;99.90;;;;;;4790098;29;20237;-80
2023/04/12 09:45:21;;;;;;;6.80;5.40;;;9.60;99.90;;;;;;4804501;29;20188;-77
2023/04/12 09:47:47;;;;;;;7.88;5.60;;;9.60;99.90;;;;;;4804162;29;20192;-77
2023/04/12 09:50:29;;;;;;;7.43;6.30;;;9.70;99.90;;;;;;4791669;29;20185;-80
2023/04/12 09:52:56;;;;;;;6.85;5.95;;;9.80;99.90;;;;;;4776482;29;20188;-77
2023/04/12 09:55:24;;;;;;;9.25;6.45;;;10.00;99.90;;;;;;4792344;29;20693;-78
2023/04/12 09:57:51;;;;;;;7.85;6.20;;;10.30;99.90;;;;;;4789809;29;20282;-80
2023/04/12 10:00:21;;;;;;;7.07;6.38;;;10.50;99.90;;;;;;4804434;29;20206;-78
2023/04/12 10:02:49;;;;;;;7.47;6.57;;;10.80;99.90;;;;;;4799303;29;20188;-78
2023/04/12 10:05:16;;;;;;;9.05;5.95;;;11.00;99.90;;;;;;4802731;29;20683;-79
2023/04/12 10:07:43;;;;;;;7.32;6.50;;;11.30;99.90;;;;;;4802670;29;20303;-79
2023/04/12 10:10:14;;;;;;;6.57;5.82;;;11.60;99.90;;;;;;4776639;29;20196;-80
2023/04/12 10:12:41;;;;;;;7.13;5.95;;;11.90;99.90;;;;;;4798623;29;20624;-79
2023/04/12 10:15:12;;;;;;;9.57;5.88;;;12.10;99.90;;;;;;4790474;29;20607;-78
2023/04/12 10:17:50;;;;;;;7.95;6.05;;;12.10;99.90;;;;;;4771895;30;20275;-79
2023/04/12 10:20:18;;;;;;;12.40;6.78;;;12.10;99.90;;;;;;4801877;29;20192;-78
2023/04/12 10:22:51;;;;;;;7.40;6.25;;;12.00;99.90;;;;;;4804840;29;20176;-79
2023/04/12 10:25:21;;;;;;;6.82;6.13;;;12.00;99.90;;;;;;4800652;29;20200;-83
2023/04/12 10:27:47;;;;;;;9.70;6.32;;;12.10;99.90;;;;;;4804971;29;20257;-79
2023/04/12 10:30:22;;;;;;;10.30;6.40;;;12.20;99.90;;;;;;4804165;29;20188;-80
2023/04/12 10:33:01;;;;;;;10.70;6.15;;;12.40;99.90;;;;;;4800858;29;20188;-81
2023/04/12 10:35:27;;;;;;;8.48;5.60;;;12.70;99.90;;;;;;4792284;29;20231;-80
2023/04/12 10:38:00;;;;;;;11.02;6.20;;;13.00;99.90;;;;;;4812793;29;20614;-79
2023/04/12 10:40:30;;;;;;;10.32;5.80;;;13.30;99.90;;;;;;4788090;29;20229;-78
2023/04/12 10:43:18;;;;;;;10.82;5.18;;;13.50;99.90;;;;;;4804530;29;20188;-79
2023/04/12 10:45:44;;;;;;;8.23;4.35;;;13.70;99.90;;;;;;4802556;29;20192;-79
2023/04/12 10:48:35;;;;;;;9.73;4.70;;;13.90;99.90;;;;;;4778945;29;20196;-80
2023/04/12 10:51:24;;;;;;;12.70;5.13;;;14.00;99.90;;;;;;4786187;29;20568;-79
2023/04/12 10:54:13;;;;;;;10.25;4.47;;;14.20;99.90;;;;;;4804777;29;20192;-78
2023/04/12 10:56:41;;;;;;;12.82;4.10;;;14.40;99.90;;;;;;4788357;29;20202;-79
2023/04/12 10:59:11;;;;;;;8.73;3.83;;;14.40;99.90;;;;;;4787351;29;20192;-79
2023/04/12 11:01:41;;;;;;;8.40;3.63;;;14.40;99.90;;;;;;4771566;29;20662;-79
2023/04/12 11:04:20;;;;;;;8.43;3.72;;;14.30;99.90;;;;;;4786543;29;20193;-78
2023/04/12 11:07:05;;;;;;;12.82;3.75;;;14.30;99.90;;;;;;4776373;29;20645;-78
2023/04/12 11:09:49;;;;;;;13.57;4.55;;;14.30;99.90;;;;;;4804603;29;20297;-80
2023/04/12 11:12:38;;;;;;;7.95;3.80;;;14.40;99.90;;;;;;4787508;29;20341;-79
2023/04/12 11:15:05;;;;;;;10.48;3.30;;;14.50;99.90;;;;;;4793610;29;20212;-80
2023/04/12 11:17:55;;;;;;;9.60;3.40;;;14.50;99.90;;;;;;4803349;29;20558;-81
2023/04/12 11:20:21;;;;;;;10.43;3.28;;;14.50;99.90;;;;;;4791347;29;20197;-78
2023/04/12 11:22:50;;;;;;;10.02;3.45;;;14.50;99.90;;;;;;4807183;29;20185;-80
2023/04/12 11:25:17;;;;;;;12.10;3.40;;;14.50;99.90;;;;;;4805518;29;20196;-80
2023/04/12 11:27:50;;;;;;;8.70;2.95;;;14.50;99.90;;;;;;4793232;29;20199;-81
2023/04/12 11:30:16;;;;;;;13.02;3.30;;;14.40;99.90;;;;;;4805580;29;20256;-79
2023/04/12 11:32:44;;;;;;;10.57;3.83;;;14.40;99.90;;;;;;4813628;29;20199;-78
2023/04/12 11:35:10;;;;;;;18.90;3.65;;;14.50;99.90;;;;;;4800653;29;20753;-78
2023/04/12 11:37:37;;;;;;;9.82;3.00;;;14.60;99.90;;;;;;4814168;29;20687;-79
2023/04/12 11:40:06;;;;;;;11.80;3.10;;;14.60;99.90;;;;;;4772575;29;20578;-80
2023/04/12 11:42:32;;;;;;;12.75;3.13;;;14.70;99.90;;;;;;4807449;29;20264;-80
2023/04/12 11:44:58;;;;;;;9.27;3.15;;;14.70;99.90;;;;;;4789934;29;20658;-80
2023/04/12 11:47:25;;;;;;;11.30;3.15;;;14.70;99.90;;;;;;4774931;29;20612;-81
2023/04/12 11:49:56;;;;;;;11.20;2.88;;;14.70;99.90;;;;;;4783051;29;20207;-83
2023/04/12 11:52:30;;;;;;;19.15;3.55;;;14.60;99.90;;;;;;4791461;29;20192;-78
2023/04/12 11:54:58;;;;;;;12.52;2.95;;;14.60;99.90;;;;;;4788702;29;20224;-79
2023/04/12 11:57:24;;;;;;;15.75;2.72;;;14.50;99.90;;;;;;4804064;29;20207;-77
2023/04/12 11:59:51;;;;;;;12.82;2.95;;;14.40;99.90;;;;;;4804683;29;20203;-77
2023/04/12 12:02:17;;;;;;;14.18;2.95;;;14.40;99.90;;;;;;4791177;29;20573;-77
2023/04/12 12:04:47;;;;;;;11.00;2.60;;;14.40;99.90;;;;;;4795431;29;20207;-77
2023/04/12 12:07:15;;;;;;;10.43;2.53;;;14.40;99.90;;;;;;4774197;30;20634;-76
2023/04/12 12:09:44;;;;;;;13.65;2.90;;;14.40;99.90;;;;;;4790049;29;20244;-78
2023/04/12 12:12:11;;;;;;;13.07;3.05;;;14.50;99.90;;;;;;4791537;29;20219;-79
2023/04/12 12:14:36;;;;;;;12.65;2.95;;;14.40;99.90;;;;;;4796370;29;20325;-78
2023/04/12 12:17:10;;;;;;;19.90;3.33;;;14.40;99.90;;;;;;4780000;29;20662;-78
2023/04/12 12:19:38;;;;;;;18.38;3.22;;;14.30;99.90;;;;;;4805336;29;20648;-78
2023/04/12 12:22:18;;;;;;;17.40;3.53;;;14.20;99.90;;;;;;4798877;29;20192;-78
2023/04/12 12:24:58;;;;;;;19.88;2.97;;;14.20;99.90;;;;;;4802078;29;20192;-77
2023/04/12 12:27:32;;;;;;;19.48;3.05;;;14.20;99.90;;;;;;4806137;29;20188;-78
2023/04/12 12:30:01;;;;;;;15.95;2.75;;;14.20;99.90;;;;;;4807215;29;20606;-78
2023/04/12 12:32:32;;;;;;;12.80;2.83;;;14.10;99.90;;;;;;4802011;29;20579;-78
2023/04/12 12:34:58;;;;;;;15.80;2.67;;;14.10;99.90;;;;;;4795067;29;20250;-78
2023/04/12 12:37:25;;;;;;;13.98;3.08;;;14.00;99.90;;;;;;4790417;29;20367;-76
2023/04/12 12:40:00;;;;;;;13.85;2.78;;;14.00;99.90;;;;;;4803761;29;20665;-76
2023/04/12 12:42:26;;;;;;;21.75;3.42;;;13.90;99.90;;;;;;4806596;29;20207;-77
2023/04/12 12:44:52;;;;;;;9.63;2.30;;;13.80;99.90;;;;;;4795059;29;20239;-78
2023/04/12 12:47:18;;;;;;;14.40;2.40;;;13.80;99.90;;;;;;4803240;29;20228;-79
2023/04/12 12:49:44;;;;;;;12.15;2.58;;;13.80;99.90;;;;;;4804228;29;20203;-79
2023/04/12 12:52:10;;;;;;;13.88;2.63;;;13.70;99.90;;;;;;4791010;29;20354;-77
2023/04/12 12:54:36;;;;;;;18.10;3.05;;;13.70;99.90;;;;;;4794560;29;20319;-77
2023/04/12 12:57:02;;;;;;;20.02;3.75;;;13.70;99.90;;;;;;4772448;30;20533;-76
2023/04/12 12:59:28;;;;;;;19.13;3.60;;;13.80;99.90;;;;;;4790343;29;20558;-76
2023/04/12 13:01:53;;;;;;;24.60;3.63;;;13.90;99.90;;;;;;4787307;30;20195;-76
2023/04/12 13:04:19;;;;;;;21.77;3.33;;;14.00;99.90;;;;;;4800782;29;20716;-76